This is the latest recevied weather packets stored in our database for station/object 9M2EVR-2. If no packets are shown the sender has not sent any weather packets the latest 10 day(s).
| Time | Temp. | Humidity | Pressure | Rain* | Wind** | Luminosity | Snow |
|---|---|---|---|---|---|---|---|
| 1777397409 | 45.56° C | 36% | 1006.5 hPa | - | - | - | - |
| 1777396509 | 45.56° C | 37% | 1006.6 hPa | - | - | - | - |
| 1777395608 | 45° C | 38% | 1007 hPa | - | - | - | - |
| 1777394707 | 45° C | 38% | 1006.9 hPa | - | - | - | - |
| 1777393806 | 43.89° C | 40% | 1007.2 hPa | - | - | - | - |
| 1777392905 | 42.78° C | 44% | 1007.5 hPa | - | - | - | - |
| 1777392005 | 36.11° C | 54% | 1007.4 hPa | - | - | - | - |
| 1777391896 | 35.56° C | 56% | 1007.4 hPa | - | - | - | - |
| 1777390995 | 35.56° C | 55% | 1007.3 hPa | - | - | - | - |
| 1777389193 | 36.11° C | 52% | 1007.6 hPa | - | - | - | - |
| 1777388292 | 36.11° C | 52% | 1007.3 hPa | - | - | - | - |
| 1777385589 | 36.67° C | 51% | 1007.1 hPa | - | - | - | - |
| 1777384688 | 37.22° C | 50% | 1006.9 hPa | - | - | - | - |
| 1777383787 | 37.22° C | 50% | 1006.9 hPa | - | - | - | - |
| 1777382024 | 37.78° C | 50% | 1006.2 hPa | - | - | - | - |
| 1777381123 | 37.22° C | 50% | 1005.9 hPa | - | - | - | - |
| 1777380223 | 37.78° C | 49% | 1005.6 hPa | - | - | - | - |
| 1777379322 | 38.33° C | 49% | 1005.5 hPa | - | - | - | - |
| 1777378421 | 38.33° C | 48% | 1005.4 hPa | - | - | - | - |
| 1777377520 | 38.33° C | 48% | 1005.1 hPa | - | - | - | - |
| 1777376619 | 38.33° C | 48% | 1004.8 hPa | - | - | - | - |
| 1777375718 | 38.33° C | 48% | 1004.7 hPa | - | - | - | - |
| 1777374818 | 38.89° C | 47% | 1004.4 hPa | - | - | - | - |
| 1777373917 | 38.89° C | 48% | 1004.3 hPa | - | - | - | - |
| 1777373016 | 38.33° C | 49% | 1004 hPa | - | - | - | - |
* Rain since midnight (hover to see other rain measurements)
** Current wind speed in m/s (hover to see current wind gust speed)